sensor_id;sensor_type;location;lat;lon;timestamp;P1;durP1;ratioP1;P2;durP2;ratioP2
31676;SDS011;18385;51.572;6.578;2023-04-19T00:00:02;14.60;;;9.32;;
31676;SDS011;18385;51.572;6.578;2023-04-19T00:02:32;15.52;;;9.38;;
31676;SDS011;18385;51.572;6.578;2023-04-19T00:04:59;12.73;;;8.43;;
31676;SDS011;18385;51.572;6.578;2023-04-19T00:07:25;14.93;;;9.52;;
31676;SDS011;18385;51.572;6.578;2023-04-19T00:09:51;13.77;;;8.77;;
31676;SDS011;18385;51.572;6.578;2023-04-19T00:12:17;15.48;;;10.55;;
31676;SDS011;18385;51.572;6.578;2023-04-19T00:14:43;13.90;;;9.27;;
31676;SDS011;18385;51.572;6.578;2023-04-19T00:17:08;14.38;;;9.35;;
31676;SDS011;18385;51.572;6.578;2023-04-19T00:19:35;14.68;;;8.73;;
31676;SDS011;18385;51.572;6.578;2023-04-19T00:22:01;13.93;;;9.27;;
31676;SDS011;18385;51.572;6.578;2023-04-19T00:24:27;13.85;;;9.20;;
31676;SDS011;18385;51.572;6.578;2023-04-19T00:26:53;13.10;;;9.02;;
31676;SDS011;18385;51.572;6.578;2023-04-19T00:29:19;14.93;;;9.13;;
31676;SDS011;18385;51.572;6.578;2023-04-19T00:31:45;19.05;;;9.68;;
31676;SDS011;18385;51.572;6.578;2023-04-19T00:34:10;14.48;;;8.77;;
31676;SDS011;18385;51.572;6.578;2023-04-19T00:36:36;17.75;;;9.95;;
31676;SDS011;18385;51.572;6.578;2023-04-19T00:39:02;15.18;;;8.88;;
31676;SDS011;18385;51.572;6.578;2023-04-19T00:41:27;14.05;;;8.60;;
31676;SDS011;18385;51.572;6.578;2023-04-19T00:43:53;18.08;;;9.55;;
31676;SDS011;18385;51.572;6.578;2023-04-19T00:46:19;15.32;;;9.60;;
31676;SDS011;18385;51.572;6.578;2023-04-19T00:48:45;16.27;;;9.23;;
31676;SDS011;18385;51.572;6.578;2023-04-19T00:51:12;19.95;;;9.95;;
31676;SDS011;18385;51.572;6.578;2023-04-19T00:53:38;16.52;;;9.35;;
31676;SDS011;18385;51.572;6.578;2023-04-19T00:56:05;15.88;;;9.07;;
31676;SDS011;18385;51.572;6.578;2023-04-19T00:58:32;15.15;;;9.13;;
31676;SDS011;18385;51.572;6.578;2023-04-19T01:00:57;15.75;;;9.45;;
31676;SDS011;18385;51.572;6.578;2023-04-19T01:03:24;14.52;;;9.07;;
31676;SDS011;18385;51.572;6.578;2023-04-19T01:05:51;18.38;;;10.27;;
31676;SDS011;18385;51.572;6.578;2023-04-19T01:08:17;16.02;;;10.25;;
31676;SDS011;18385;51.572;6.578;2023-04-19T01:10:43;18.20;;;10.15;;
31676;SDS011;18385;51.572;6.578;2023-04-19T01:13:09;16.98;;;10.25;;
31676;SDS011;18385;51.572;6.578;2023-04-19T01:15:36;14.15;;;9.02;;
31676;SDS011;18385;51.572;6.578;2023-04-19T01:18:02;13.88;;;8.95;;
31676;SDS011;18385;51.572;6.578;2023-04-19T01:20:27;18.45;;;9.98;;
31676;SDS011;18385;51.572;6.578;2023-04-19T01:22:53;14.57;;;9.35;;
31676;SDS011;18385;51.572;6.578;2023-04-19T01:25:19;16.00;;;9.60;;
31676;SDS011;18385;51.572;6.578;2023-04-19T01:27:44;17.63;;;9.57;;
31676;SDS011;18385;51.572;6.578;2023-04-19T01:30:10;13.95;;;8.35;;
31676;SDS011;18385;51.572;6.578;2023-04-19T01:32:36;16.13;;;9.75;;
31676;SDS011;18385;51.572;6.578;2023-04-19T01:35:02;17.20;;;9.55;;
31676;SDS011;18385;51.572;6.578;2023-04-19T01:37:28;13.88;;;8.43;;
31676;SDS011;18385;51.572;6.578;2023-04-19T01:39:54;14.02;;;8.77;;
31676;SDS011;18385;51.572;6.578;2023-04-19T01:42:20;13.77;;;8.75;;
31676;SDS011;18385;51.572;6.578;2023-04-19T01:44:45;16.20;;;9.40;;
31676;SDS011;18385;51.572;6.578;2023-04-19T01:47:11;12.50;;;8.68;;
31676;SDS011;18385;51.572;6.578;2023-04-19T01:49:38;14.38;;;8.90;;
31676;SDS011;18385;51.572;6.578;2023-04-19T01:52:04;13.55;;;8.13;;
31676;SDS011;18385;51.572;6.578;2023-04-19T01:54:30;13.23;;;8.73;;
31676;SDS011;18385;51.572;6.578;2023-04-19T01:56:56;12.85;;;9.52;;
31676;SDS011;18385;51.572;6.578;2023-04-19T01:59:22;12.90;;;8.23;;
31676;SDS011;18385;51.572;6.578;2023-04-19T02:01:49;15.25;;;8.95;;
31676;SDS011;18385;51.572;6.578;2023-04-19T02:04:17;13.27;;;7.93;;
31676;SDS011;18385;51.572;6.578;2023-04-19T02:06:44;13.32;;;8.55;;
31676;SDS011;18385;51.572;6.578;2023-04-19T02:09:10;13.27;;;8.35;;
31676;SDS011;18385;51.572;6.578;2023-04-19T02:11:36;14.00;;;8.57;;
31676;SDS011;18385;51.572;6.578;2023-04-19T02:14:01;15.93;;;8.55;;
31676;SDS011;18385;51.572;6.578;2023-04-19T02:16:27;15.40;;;8.10;;
31676;SDS011;18385;51.572;6.578;2023-04-19T02:18:53;15.80;;;8.57;;
31676;SDS011;18385;51.572;6.578;2023-04-19T02:21:19;11.50;;;8.07;;
31676;SDS011;18385;51.572;6.578;2023-04-19T02:23:45;14.60;;;8.20;;
31676;SDS011;18385;51.572;6.578;2023-04-19T02:26:11;17.88;;;7.80;;
31676;SDS011;18385;51.572;6.578;2023-04-19T02:28:37;13.68;;;8.02;;
31676;SDS011;18385;51.572;6.578;2023-04-19T02:31:04;13.32;;;8.27;;
31676;SDS011;18385;51.572;6.578;2023-04-19T02:35:59;12.80;;;7.93;;
31676;SDS011;18385;51.572;6.578;2023-04-19T02:38:25;12.43;;;8.18;;
31676;SDS011;18385;51.572;6.578;2023-04-19T02:40:52;12.52;;;7.55;;
31676;SDS011;18385;51.572;6.578;2023-04-19T02:43:17;13.93;;;7.88;;
31676;SDS011;18385;51.572;6.578;2023-04-19T02:45:43;15.80;;;8.45;;
31676;SDS011;18385;51.572;6.578;2023-04-19T02:48:11;14.73;;;8.50;;
31676;SDS011;18385;51.572;6.578;2023-04-19T02:50:37;12.52;;;7.40;;
31676;SDS011;18385;51.572;6.578;2023-04-19T02:53:02;12.20;;;7.80;;
31676;SDS011;18385;51.572;6.578;2023-04-19T02:55:30;13.55;;;7.10;;
31676;SDS011;18385;51.572;6.578;2023-04-19T02:58:04;12.95;;;7.55;;
31676;SDS011;18385;51.572;6.578;2023-04-19T03:03:06;13.15;;;7.80;;
31676;SDS011;18385;51.572;6.578;2023-04-19T03:05:32;10.05;;;7.15;;
31676;SDS011;18385;51.572;6.578;2023-04-19T03:07:58;11.35;;;7.18;;
31676;SDS011;18385;51.572;6.578;2023-04-19T03:10:24;11.70;;;6.40;;
31676;SDS011;18385;51.572;6.578;2023-04-19T03:12:50;12.25;;;6.68;;
31676;SDS011;18385;51.572;6.578;2023-04-19T03:15:16;9.43;;;6.13;;
31676;SDS011;18385;51.572;6.578;2023-04-19T03:17:43;12.95;;;7.15;;
31676;SDS011;18385;51.572;6.578;2023-04-19T03:20:09;8.88;;;5.93;;
31676;SDS011;18385;51.572;6.578;2023-04-19T03:22:36;10.65;;;5.63;;
31676;SDS011;18385;51.572;6.578;2023-04-19T03:25:02;11.32;;;5.50;;
31676;SDS011;18385;51.572;6.578;2023-04-19T03:27:29;12.05;;;5.97;;
31676;SDS011;18385;51.572;6.578;2023-04-19T03:29:59;8.48;;;4.93;;
31676;SDS011;18385;51.572;6.578;2023-04-19T03:32:25;8.13;;;5.38;;
31676;SDS011;18385;51.572;6.578;2023-04-19T03:34:51;6.93;;;4.75;;
31676;SDS011;18385;51.572;6.578;2023-04-19T03:37:17;8.52;;;4.25;;
31676;SDS011;18385;51.572;6.578;2023-04-19T03:39:43;9.88;;;4.85;;
31676;SDS011;18385;51.572;6.578;2023-04-19T03:42:13;6.57;;;4.53;;
31676;SDS011;18385;51.572;6.578;2023-04-19T03:44:57;7.75;;;4.50;;
31676;SDS011;18385;51.572;6.578;2023-04-19T03:47:24;8.50;;;4.45;;
31676;SDS011;18385;51.572;6.578;2023-04-19T03:49:54;12.68;;;5.15;;
31676;SDS011;18385;51.572;6.578;2023-04-19T03:52:20;8.52;;;4.18;;
31676;SDS011;18385;51.572;6.578;2023-04-19T03:54:45;7.43;;;4.53;;
31676;SDS011;18385;51.572;6.578;2023-04-19T03:57:24;12.52;;;5.03;;
31676;SDS011;18385;51.572;6.578;2023-04-19T03:59:50;8.73;;;4.60;;
31676;SDS011;18385;51.572;6.578;2023-04-19T04:02:17;7.38;;;4.47;;
31676;SDS011;18385;51.572;6.578;2023-04-19T04:04:43;6.95;;;4.40;;
31676;SDS011;18385;51.572;6.578;2023-04-19T04:07:08;10.10;;;4.82;;
31676;SDS011;18385;51.572;6.578;2023-04-19T04:09:34;6.80;;;4.25;;
31676;SDS011;18385;51.572;6.578;2023-04-19T04:12:00;7.75;;;4.05;;
31676;SDS011;18385;51.572;6.578;2023-04-19T04:14:28;8.45;;;4.57;;
31676;SDS011;18385;51.572;6.578;2023-04-19T04:16:54;10.05;;;4.30;;
31676;SDS011;18385;51.572;6.578;2023-04-19T04:19:20;6.10;;;4.00;;
31676;SDS011;18385;51.572;6.578;2023-04-19T04:21:46;8.13;;;4.03;;
31676;SDS011;18385;51.572;6.578;2023-04-19T04:24:14;7.53;;;4.50;;
31676;SDS011;18385;51.572;6.578;2023-04-19T04:26:55;8.63;;;4.68;;
31676;SDS011;18385;51.572;6.578;2023-04-19T04:29:24;8.23;;;4.67;;
31676;SDS011;18385;51.572;6.578;2023-04-19T04:31:52;8.25;;;4.55;;
31676;SDS011;18385;51.572;6.578;2023-04-19T04:34:23;6.60;;;4.30;;
31676;SDS011;18385;51.572;6.578;2023-04-19T04:36:56;8.50;;;4.40;;
31676;SDS011;18385;51.572;6.578;2023-04-19T04:39:22;7.47;;;4.30;;
31676;SDS011;18385;51.572;6.578;2023-04-19T04:41:48;9.07;;;3.88;;
31676;SDS011;18385;51.572;6.578;2023-04-19T04:44:16;6.03;;;4.22;;
31676;SDS011;18385;51.572;6.578;2023-04-19T04:46:43;8.07;;;4.28;;
31676;SDS011;18385;51.572;6.578;2023-04-19T04:49:12;7.30;;;4.17;;
31676;SDS011;18385;51.572;6.578;2023-04-19T04:51:40;8.15;;;4.10;;
31676;SDS011;18385;51.572;6.578;2023-04-19T04:54:06;9.00;;;4.78;;
31676;SDS011;18385;51.572;6.578;2023-04-19T04:56:33;7.20;;;4.57;;
31676;SDS011;18385;51.572;6.578;2023-04-19T04:58:58;7.32;;;4.07;;
31676;SDS011;18385;51.572;6.578;2023-04-19T05:01:32;7.75;;;4.18;;
31676;SDS011;18385;51.572;6.578;2023-04-19T05:03:58;7.85;;;3.85;;
31676;SDS011;18385;51.572;6.578;2023-04-19T05:06:23;6.28;;;4.03;;
31676;SDS011;18385;51.572;6.578;2023-04-19T05:08:49;6.85;;;4.50;;
31676;SDS011;18385;51.572;6.578;2023-04-19T05:11:32;9.32;;;4.30;;
31676;SDS011;18385;51.572;6.578;2023-04-19T05:13:59;12.43;;;4.72;;
31676;SDS011;18385;51.572;6.578;2023-04-19T05:16:25;8.07;;;4.10;;
31676;SDS011;18385;51.572;6.578;2023-04-19T05:18:51;6.97;;;4.28;;
31676;SDS011;18385;51.572;6.578;2023-04-19T05:21:17;7.57;;;4.10;;
31676;SDS011;18385;51.572;6.578;2023-04-19T05:23:43;7.78;;;3.85;;
31676;SDS011;18385;51.572;6.578;2023-04-19T05:26:11;8.90;;;4.15;;
31676;SDS011;18385;51.572;6.578;2023-04-19T05:28:40;9.05;;;4.28;;
31676;SDS011;18385;51.572;6.578;2023-04-19T05:31:11;6.82;;;3.70;;
31676;SDS011;18385;51.572;6.578;2023-04-19T05:33:44;9.60;;;4.18;;
31676;SDS011;18385;51.572;6.578;2023-04-19T05:36:10;7.95;;;4.30;;
31676;SDS011;18385;51.572;6.578;2023-04-19T05:38:36;8.20;;;4.18;;
31676;SDS011;18385;51.572;6.578;2023-04-19T05:41:02;8.80;;;4.63;;
31676;SDS011;18385;51.572;6.578;2023-04-19T05:43:28;6.45;;;3.80;;
31676;SDS011;18385;51.572;6.578;2023-04-19T05:45:54;7.75;;;4.15;;
31676;SDS011;18385;51.572;6.578;2023-04-19T05:48:20;8.73;;;4.22;;
31676;SDS011;18385;51.572;6.578;2023-04-19T05:51:04;7.22;;;4.03;;
31676;SDS011;18385;51.572;6.578;2023-04-19T05:54:05;8.48;;;4.30;;
31676;SDS011;18385;51.572;6.578;2023-04-19T05:56:31;9.90;;;5.28;;
31676;SDS011;18385;51.572;6.578;2023-04-19T05:58:56;12.48;;;4.75;;
31676;SDS011;18385;51.572;6.578;2023-04-19T06:01:24;7.20;;;4.47;;
31676;SDS011;18385;51.572;6.578;2023-04-19T06:03:50;8.68;;;4.85;;
31676;SDS011;18385;51.572;6.578;2023-04-19T06:06:20;12.38;;;4.75;;
31676;SDS011;18385;51.572;6.578;2023-04-19T06:08:47;7.38;;;3.97;;
31676;SDS011;18385;51.572;6.578;2023-04-19T06:11:12;6.95;;;4.25;;
31676;SDS011;18385;51.572;6.578;2023-04-19T06:13:40;8.02;;;3.97;;
31676;SDS011;18385;51.572;6.578;2023-04-19T06:16:06;8.20;;;3.78;;
31676;SDS011;18385;51.572;6.578;2023-04-19T06:18:32;6.50;;;3.70;;
31676;SDS011;18385;51.572;6.578;2023-04-19T06:20:58;6.28;;;3.50;;
31676;SDS011;18385;51.572;6.578;2023-04-19T06:23:23;7.40;;;4.03;;
31676;SDS011;18385;51.572;6.578;2023-04-19T06:25:51;5.15;;;3.60;;
31676;SDS011;18385;51.572;6.578;2023-04-19T06:28:16;7.43;;;3.53;;
31676;SDS011;18385;51.572;6.578;2023-04-19T06:30:42;5.88;;;3.55;;
31676;SDS011;18385;51.572;6.578;2023-04-19T06:33:08;7.25;;;3.90;;
31676;SDS011;18385;51.572;6.578;2023-04-19T06:35:34;7.40;;;3.22;;
31676;SDS011;18385;51.572;6.578;2023-04-19T06:37:59;7.22;;;3.35;;
31676;SDS011;18385;51.572;6.578;2023-04-19T06:40:25;8.20;;;3.70;;
31676;SDS011;18385;51.572;6.578;2023-04-19T06:42:54;4.85;;;3.15;;
31676;SDS011;18385;51.572;6.578;2023-04-19T06:45:20;6.68;;;3.67;;
31676;SDS011;18385;51.572;6.578;2023-04-19T06:47:45;5.82;;;3.60;;
31676;SDS011;18385;51.572;6.578;2023-04-19T06:50:11;7.10;;;3.58;;
31676;SDS011;18385;51.572;6.578;2023-04-19T06:52:37;6.32;;;3.40;;
31676;SDS011;18385;51.572;6.578;2023-04-19T06:55:07;6.38;;;3.55;;
31676;SDS011;18385;51.572;6.578;2023-04-19T06:57:33;5.28;;;3.25;;
31676;SDS011;18385;51.572;6.578;2023-04-19T06:59:59;7.22;;;3.28;;
31676;SDS011;18385;51.572;6.578;2023-04-19T07:02:24;8.15;;;3.28;;
31676;SDS011;18385;51.572;6.578;2023-04-19T07:04:50;8.30;;;2.92;;
31676;SDS011;18385;51.572;6.578;2023-04-19T07:07:16;7.93;;;2.88;;
31676;SDS011;18385;51.572;6.578;2023-04-19T07:09:41;5.70;;;2.83;;
31676;SDS011;18385;51.572;6.578;2023-04-19T07:12:07;6.57;;;2.67;;
31676;SDS011;18385;51.572;6.578;2023-04-19T07:14:33;6.63;;;3.22;;
31676;SDS011;18385;51.572;6.578;2023-04-19T07:16:58;7.88;;;3.10;;
31676;SDS011;18385;51.572;6.578;2023-04-19T07:19:24;8.00;;;3.40;;
31676;SDS011;18385;51.572;6.578;2023-04-19T07:21:52;5.40;;;2.70;;
31676;SDS011;18385;51.572;6.578;2023-04-19T07:24:17;9.48;;;2.75;;
31676;SDS011;18385;51.572;6.578;2023-04-19T07:26:43;7.80;;;3.00;;
31676;SDS011;18385;51.572;6.578;2023-04-19T07:29:09;3.75;;;2.30;;
31676;SDS011;18385;51.572;6.578;2023-04-19T07:31:34;8.07;;;3.65;;
31676;SDS011;18385;51.572;6.578;2023-04-19T07:34:00;4.30;;;2.67;;
31676;SDS011;18385;51.572;6.578;2023-04-19T07:36:26;5.47;;;2.83;;
31676;SDS011;18385;51.572;6.578;2023-04-19T07:38:52;6.40;;;2.85;;
31676;SDS011;18385;51.572;6.578;2023-04-19T07:41:17;5.20;;;2.47;;
31676;SDS011;18385;51.572;6.578;2023-04-19T07:43:43;3.78;;;2.47;;
31676;SDS011;18385;51.572;6.578;2023-04-19T07:46:12;3.53;;;2.40;;
31676;SDS011;18385;51.572;6.578;2023-04-19T07:48:40;4.60;;;2.45;;
31676;SDS011;18385;51.572;6.578;2023-04-19T07:51:09;6.70;;;2.45;;
31676;SDS011;18385;51.572;6.578;2023-04-19T07:53:36;6.10;;;2.72;;
31676;SDS011;18385;51.572;6.578;2023-04-19T07:56:03;7.75;;;2.75;;
31676;SDS011;18385;51.572;6.578;2023-04-19T07:58:29;5.20;;;2.60;;
31676;SDS011;18385;51.572;6.578;2023-04-19T08:00:54;5.03;;;2.55;;
31676;SDS011;18385;51.572;6.578;2023-04-19T08:03:20;5.55;;;2.67;;
31676;SDS011;18385;51.572;6.578;2023-04-19T08:05:46;4.63;;;2.90;;
31676;SDS011;18385;51.572;6.578;2023-04-19T08:08:11;7.35;;;2.47;;
31676;SDS011;18385;51.572;6.578;2023-04-19T08:10:37;4.30;;;1.98;;
31676;SDS011;18385;51.572;6.578;2023-04-19T08:13:03;4.38;;;2.20;;
31676;SDS011;18385;51.572;6.578;2023-04-19T08:15:28;5.07;;;2.40;;
31676;SDS011;18385;51.572;6.578;2023-04-19T08:17:54;5.32;;;1.90;;
31676;SDS011;18385;51.572;6.578;2023-04-19T08:20:19;5.97;;;2.40;;
31676;SDS011;18385;51.572;6.578;2023-04-19T08:22:45;5.53;;;2.60;;
31676;SDS011;18385;51.572;6.578;2023-04-19T08:25:11;3.90;;;2.10;;
31676;SDS011;18385;51.572;6.578;2023-04-19T08:27:37;7.03;;;2.30;;
31676;SDS011;18385;51.572;6.578;2023-04-19T08:30:03;3.33;;;2.05;;
31676;SDS011;18385;51.572;6.578;2023-04-19T08:32:29;6.38;;;2.53;;
31676;SDS011;18385;51.572;6.578;2023-04-19T08:34:55;3.97;;;2.35;;
31676;SDS011;18385;51.572;6.578;2023-04-19T08:37:21;4.55;;;1.77;;
31676;SDS011;18385;51.572;6.578;2023-04-19T08:39:47;4.00;;;2.05;;
31676;SDS011;18385;51.572;6.578;2023-04-19T08:42:12;10.43;;;2.95;;
31676;SDS011;18385;51.572;6.578;2023-04-19T08:44:38;5.90;;;1.88;;
31676;SDS011;18385;51.572;6.578;2023-04-19T08:47:04;3.60;;;1.98;;
31676;SDS011;18385;51.572;6.578;2023-04-19T08:49:33;2.83;;;1.92;;
31676;SDS011;18385;51.572;6.578;2023-04-19T08:52:01;5.35;;;1.70;;
31676;SDS011;18385;51.572;6.578;2023-04-19T08:54:30;6.38;;;2.30;;
31676;SDS011;18385;51.572;6.578;2023-04-19T08:56:59;4.53;;;1.83;;
31676;SDS011;18385;51.572;6.578;2023-04-19T08:59:26;4.07;;;1.63;;
31676;SDS011;18385;51.572;6.578;2023-04-19T09:01:54;4.63;;;1.87;;
31676;SDS011;18385;51.572;6.578;2023-04-19T09:04:23;2.53;;;1.60;;
31676;SDS011;18385;51.572;6.578;2023-04-19T09:06:49;3.95;;;2.10;;
31676;SDS011;18385;51.572;6.578;2023-04-19T09:09:16;5.60;;;2.33;;
31676;SDS011;18385;51.572;6.578;2023-04-19T09:11:47;6.03;;;1.58;;
31676;SDS011;18385;51.572;6.578;2023-04-19T09:14:14;7.45;;;1.42;;
31676;SDS011;18385;51.572;6.578;2023-04-19T09:16:42;6.97;;;1.65;;
31676;SDS011;18385;51.572;6.578;2023-04-19T09:19:08;5.03;;;1.48;;
31676;SDS011;18385;51.572;6.578;2023-04-19T09:21:34;4.57;;;1.73;;
31676;SDS011;18385;51.572;6.578;2023-04-19T09:24:00;5.10;;;1.30;;
31676;SDS011;18385;51.572;6.578;2023-04-19T09:26:27;4.40;;;1.55;;
31676;SDS011;18385;51.572;6.578;2023-04-19T09:28:56;1.90;;;1.08;;
31676;SDS011;18385;51.572;6.578;2023-04-19T09:31:32;3.75;;;1.38;;
31676;SDS011;18385;51.572;6.578;2023-04-19T09:34:13;2.67;;;0.93;;
31676;SDS011;18385;51.572;6.578;2023-04-19T09:36:40;2.15;;;0.77;;
31676;SDS011;18385;51.572;6.578;2023-04-19T09:39:06;2.58;;;1.00;;
31676;SDS011;18385;51.572;6.578;2023-04-19T09:41:32;3.05;;;1.05;;
31676;SDS011;18385;51.572;6.578;2023-04-19T09:44:08;4.80;;;1.00;;
31676;SDS011;18385;51.572;6.578;2023-04-19T09:46:35;4.70;;;1.02;;
31676;SDS011;18385;51.572;6.578;2023-04-19T09:51:41;2.22;;;1.00;;
31676;SDS011;18385;51.572;6.578;2023-04-19T09:54:15;2.53;;;0.80;;
31676;SDS011;18385;51.572;6.578;2023-04-19T09:56:42;1.52;;;0.70;;
31676;SDS011;18385;51.572;6.578;2023-04-19T09:59:09;5.03;;;0.90;;
31676;SDS011;18385;51.572;6.578;2023-04-19T10:01:39;3.20;;;1.42;;
31676;SDS011;18385;51.572;6.578;2023-04-19T10:04:06;4.45;;;1.20;;
31676;SDS011;18385;51.572;6.578;2023-04-19T10:06:35;2.97;;;1.40;;
31676;SDS011;18385;51.572;6.578;2023-04-19T10:09:02;3.03;;;1.50;;
31676;SDS011;18385;51.572;6.578;2023-04-19T10:11:37;2.60;;;1.40;;
31676;SDS011;18385;51.572;6.578;2023-04-19T10:14:04;2.42;;;1.05;;
31676;SDS011;18385;51.572;6.578;2023-04-19T10:16:32;2.25;;;1.50;;
31676;SDS011;18385;51.572;6.578;2023-04-19T10:18:59;5.03;;;1.45;;
31676;SDS011;18385;51.572;6.578;2023-04-19T10:21:31;3.85;;;1.42;;
31676;SDS011;18385;51.572;6.578;2023-04-19T10:23:58;1.73;;;1.20;;
31676;SDS011;18385;51.572;6.578;2023-04-19T10:26:25;2.70;;;1.55;;
31676;SDS011;18385;51.572;6.578;2023-04-19T10:28:51;4.82;;;1.40;;
31676;SDS011;18385;51.572;6.578;2023-04-19T10:31:19;4.88;;;1.60;;
31676;SDS011;18385;51.572;6.578;2023-04-19T10:33:48;2.55;;;1.20;;
31676;SDS011;18385;51.572;6.578;2023-04-19T10:36:15;4.03;;;1.83;;
31676;SDS011;18385;51.572;6.578;2023-04-19T10:41:12;5.47;;;1.40;;
31676;SDS011;18385;51.572;6.578;2023-04-19T10:48:58;4.57;;;1.60;;
31676;SDS011;18385;51.572;6.578;2023-04-19T10:51:26;4.85;;;1.60;;
31676;SDS011;18385;51.572;6.578;2023-04-19T10:53:54;5.15;;;1.42;;
31676;SDS011;18385;51.572;6.578;2023-04-19T11:01:38;2.45;;;1.48;;
31676;SDS011;18385;51.572;6.578;2023-04-19T11:04:07;3.33;;;1.60;;
31676;SDS011;18385;51.572;6.578;2023-04-19T11:06:33;4.50;;;1.40;;
31676;SDS011;18385;51.572;6.578;2023-04-19T11:09:01;3.65;;;1.52;;
31676;SDS011;18385;51.572;6.578;2023-04-19T11:11:35;3.92;;;1.35;;
31676;SDS011;18385;51.572;6.578;2023-04-19T11:14:01;3.85;;;1.27;;
31676;SDS011;18385;51.572;6.578;2023-04-19T11:16:28;4.25;;;1.80;;
31676;SDS011;18385;51.572;6.578;2023-04-19T11:18:54;6.03;;;1.55;;
31676;SDS011;18385;51.572;6.578;2023-04-19T11:21:20;3.53;;;1.35;;
31676;SDS011;18385;51.572;6.578;2023-04-19T11:23:47;4.30;;;1.33;;
31676;SDS011;18385;51.572;6.578;2023-04-19T11:26:14;4.75;;;1.73;;
31676;SDS011;18385;51.572;6.578;2023-04-19T11:28:40;3.95;;;1.60;;
31676;SDS011;18385;51.572;6.578;2023-04-19T11:31:05;2.80;;;1.35;;
31676;SDS011;18385;51.572;6.578;2023-04-19T11:33:34;3.72;;;1.42;;
31676;SDS011;18385;51.572;6.578;2023-04-19T11:36:01;4.75;;;1.40;;
31676;SDS011;18385;51.572;6.578;2023-04-19T11:38:28;1.90;;;1.15;;
31676;SDS011;18385;51.572;6.578;2023-04-19T11:41:01;5.47;;;1.42;;
31676;SDS011;18385;51.572;6.578;2023-04-19T11:43:34;6.78;;;1.67;;
31676;SDS011;18385;51.572;6.578;2023-04-19T11:46:07;5.43;;;1.50;;
31676;SDS011;18385;51.572;6.578;2023-04-19T11:48:34;3.50;;;1.40;;
31676;SDS011;18385;51.572;6.578;2023-04-19T11:51:01;3.92;;;1.40;;
31676;SDS011;18385;51.572;6.578;2023-04-19T11:53:28;5.35;;;1.40;;
31676;SDS011;18385;51.572;6.578;2023-04-19T11:56:05;2.63;;;1.15;;
31676;SDS011;18385;51.572;6.578;2023-04-19T11:58:42;5.13;;;1.98;;
31676;SDS011;18385;51.572;6.578;2023-04-19T12:01:10;4.55;;;1.67;;
31676;SDS011;18385;51.572;6.578;2023-04-19T12:06:23;2.67;;;1.42;;
31676;SDS011;18385;51.572;6.578;2023-04-19T12:08:57;3.75;;;1.63;;
31676;SDS011;18385;51.572;6.578;2023-04-19T12:11:24;5.22;;;2.25;;
31676;SDS011;18385;51.572;6.578;2023-04-19T12:14:12;5.35;;;1.80;;
31676;SDS011;18385;51.572;6.578;2023-04-19T12:16:38;3.03;;;1.58;;
31676;SDS011;18385;51.572;6.578;2023-04-19T12:19:15;3.40;;;1.52;;
31676;SDS011;18385;51.572;6.578;2023-04-19T12:21:42;3.40;;;1.80;;
31676;SDS011;18385;51.572;6.578;2023-04-19T12:24:09;2.97;;;1.50;;
31676;SDS011;18385;51.572;6.578;2023-04-19T12:26:51;3.67;;;1.60;;
31676;SDS011;18385;51.572;6.578;2023-04-19T12:29:19;3.22;;;1.63;;
31676;SDS011;18385;51.572;6.578;2023-04-19T12:31:44;3.08;;;1.52;;
31676;SDS011;18385;51.572;6.578;2023-04-19T12:34:10;3.88;;;1.80;;
31676;SDS011;18385;51.572;6.578;2023-04-19T12:36:35;6.88;;;1.75;;
31676;SDS011;18385;51.572;6.578;2023-04-19T12:39:01;4.85;;;1.77;;
31676;SDS011;18385;51.572;6.578;2023-04-19T12:41:27;3.63;;;1.73;;
31676;SDS011;18385;51.572;6.578;2023-04-19T12:43:52;3.55;;;1.70;;
31676;SDS011;18385;51.572;6.578;2023-04-19T12:46:18;4.20;;;1.88;;
31676;SDS011;18385;51.572;6.578;2023-04-19T12:48:43;6.78;;;2.35;;
31676;SDS011;18385;51.572;6.578;2023-04-19T12:51:09;3.53;;;2.03;;
31676;SDS011;18385;51.572;6.578;2023-04-19T12:53:35;2.95;;;1.70;;
31676;SDS011;18385;51.572;6.578;2023-04-19T12:56:01;4.43;;;1.88;;
31676;SDS011;18385;51.572;6.578;2023-04-19T12:58:26;5.10;;;2.17;;
31676;SDS011;18385;51.572;6.578;2023-04-19T13:00:52;6.22;;;1.75;;
31676;SDS011;18385;51.572;6.578;2023-04-19T13:03:18;4.57;;;2.30;;
31676;SDS011;18385;51.572;6.578;2023-04-19T13:05:43;5.63;;;1.85;;
31676;SDS011;18385;51.572;6.578;2023-04-19T13:08:10;5.10;;;2.47;;
31676;SDS011;18385;51.572;6.578;2023-04-19T13:10:36;3.28;;;2.10;;
31676;SDS011;18385;51.572;6.578;2023-04-19T13:13:01;3.60;;;2.17;;
31676;SDS011;18385;51.572;6.578;2023-04-19T13:15:27;4.43;;;2.15;;
31676;SDS011;18385;51.572;6.578;2023-04-19T13:17:53;4.15;;;2.55;;
31676;SDS011;18385;51.572;6.578;2023-04-19T13:20:19;5.00;;;2.65;;
31676;SDS011;18385;51.572;6.578;2023-04-19T13:22:44;6.10;;;2.10;;
31676;SDS011;18385;51.572;6.578;2023-04-19T13:25:10;6.55;;;2.90;;
31676;SDS011;18385;51.572;6.578;2023-04-19T13:27:36;4.05;;;2.40;;
31676;SDS011;18385;51.572;6.578;2023-04-19T13:30:02;4.57;;;2.35;;
31676;SDS011;18385;51.572;6.578;2023-04-19T13:32:28;6.95;;;2.92;;
31676;SDS011;18385;51.572;6.578;2023-04-19T13:34:53;3.40;;;2.05;;
31676;SDS011;18385;51.572;6.578;2023-04-19T13:37:19;5.18;;;2.28;;
31676;SDS011;18385;51.572;6.578;2023-04-19T13:39:45;3.85;;;2.22;;
31676;SDS011;18385;51.572;6.578;2023-04-19T13:42:11;5.10;;;2.08;;
31676;SDS011;18385;51.572;6.578;2023-04-19T13:44:38;3.72;;;2.45;;
31676;SDS011;18385;51.572;6.578;2023-04-19T13:47:04;5.65;;;2.28;;
31676;SDS011;18385;51.572;6.578;2023-04-19T13:49:29;3.63;;;1.92;;
31676;SDS011;18385;51.572;6.578;2023-04-19T13:51:55;3.47;;;1.90;;
31676;SDS011;18385;51.572;6.578;2023-04-19T13:54:21;7.20;;;2.35;;
31676;SDS011;18385;51.572;6.578;2023-04-19T13:56:46;5.05;;;2.35;;
31676;SDS011;18385;51.572;6.578;2023-04-19T13:59:12;3.25;;;2.20;;
31676;SDS011;18385;51.572;6.578;2023-04-19T14:01:38;6.95;;;2.05;;
31676;SDS011;18385;51.572;6.578;2023-04-19T14:04:03;3.47;;;2.08;;
31676;SDS011;18385;51.572;6.578;2023-04-19T14:06:29;4.68;;;2.10;;
31676;SDS011;18385;51.572;6.578;2023-04-19T14:08:56;4.38;;;2.10;;
31676;SDS011;18385;51.572;6.578;2023-04-19T14:11:21;6.20;;;2.20;;
31676;SDS011;18385;51.572;6.578;2023-04-19T14:13:49;7.68;;;2.55;;
31676;SDS011;18385;51.572;6.578;2023-04-19T14:16:14;3.67;;;2.08;;
31676;SDS011;18385;51.572;6.578;2023-04-19T14:18:40;12.32;;;3.03;;
31676;SDS011;18385;51.572;6.578;2023-04-19T14:21:06;4.28;;;2.20;;
31676;SDS011;18385;51.572;6.578;2023-04-19T14:23:32;5.55;;;2.20;;
31676;SDS011;18385;51.572;6.578;2023-04-19T14:25:58;4.68;;;2.30;;
31676;SDS011;18385;51.572;6.578;2023-04-19T14:28:23;4.05;;;2.00;;
31676;SDS011;18385;51.572;6.578;2023-04-19T14:30:49;3.42;;;2.08;;
31676;SDS011;18385;51.572;6.578;2023-04-19T14:33:15;5.05;;;2.47;;
31676;SDS011;18385;51.572;6.578;2023-04-19T14:35:41;3.85;;;2.05;;
31676;SDS011;18385;51.572;6.578;2023-04-19T14:38:07;2.72;;;2.10;;
31676;SDS011;18385;51.572;6.578;2023-04-19T14:40:32;6.32;;;2.30;;
31676;SDS011;18385;51.572;6.578;2023-04-19T14:42:58;3.85;;;2.13;;
31676;SDS011;18385;51.572;6.578;2023-04-19T14:45:24;3.08;;;2.08;;
31676;SDS011;18385;51.572;6.578;2023-04-19T14:47:51;3.30;;;1.92;;
31676;SDS011;18385;51.572;6.578;2023-04-19T14:50:17;3.78;;;2.30;;
31676;SDS011;18385;51.572;6.578;2023-04-19T14:52:43;5.07;;;1.90;;
31676;SDS011;18385;51.572;6.578;2023-04-19T14:55:09;3.90;;;1.90;;
31676;SDS011;18385;51.572;6.578;2023-04-19T14:57:35;6.60;;;2.25;;
31676;SDS011;18385;51.572;6.578;2023-04-19T15:00:01;4.47;;;2.05;;
31676;SDS011;18385;51.572;6.578;2023-04-19T15:02:27;4.50;;;2.58;;
31676;SDS011;18385;51.572;6.578;2023-04-19T15:04:53;5.53;;;2.10;;